sensor_id;sensor_type;location;lat;lon;timestamp;pressure;altitude;pressure_sealevel;temperature;humidity
71567;BME280;59403;47.456;19.120;2023-07-29T00:01:55;99821.31;;;21.14;97.73
71567;BME280;59403;47.456;19.120;2023-07-29T00:04:22;99837.25;;;21.15;98.25
71567;BME280;59403;47.456;19.120;2023-07-29T00:06:49;99824.63;;;21.04;98.61
71567;BME280;59403;47.456;19.120;2023-07-29T00:09:16;99835.72;;;21.08;99.07
71567;BME280;59403;47.456;19.120;2023-07-29T00:11:44;99842.44;;;21.05;99.24
71567;BME280;59403;47.456;19.120;2023-07-29T00:14:11;99831.06;;;21.03;99.28
71567;BME280;59403;47.456;19.120;2023-07-29T00:16:38;99837.97;;;20.99;99.66
71567;BME280;59403;47.456;19.120;2023-07-29T00:19:06;99833.87;;;20.97;99.80
71567;BME280;59403;47.456;19.120;2023-07-29T00:21:33;99837.84;;;20.94;100.00
71567;BME280;59403;47.456;19.120;2023-07-29T00:24:00;99835.63;;;20.91;100.00
71567;BME280;59403;47.456;19.120;2023-07-29T00:26:27;99826.37;;;20.87;100.00
71567;BME280;59403;47.456;19.120;2023-07-29T00:28:56;99807.69;;;20.81;99.94
71567;BME280;59403;47.456;19.120;2023-07-29T00:31:23;99830.00;;;20.93;100.00
71567;BME280;59403;47.456;19.120;2023-07-29T00:33:50;99818.69;;;20.79;100.00
71567;BME280;59403;47.456;19.120;2023-07-29T00:36:18;99824.19;;;20.84;100.00
71567;BME280;59403;47.456;19.120;2023-07-29T00:38:45;99827.09;;;20.83;100.00
71567;BME280;59403;47.456;19.120;2023-07-29T00:41:13;99826.19;;;20.77;100.00
71567;BME280;59403;47.456;19.120;2023-07-29T00:43:44;99811.09;;;20.65;100.00
71567;BME280;59403;47.456;19.120;2023-07-29T00:46:12;99826.31;;;20.71;100.00
71567;BME280;59403;47.456;19.120;2023-07-29T00:48:39;99826.66;;;20.63;100.00
71567;BME280;59403;47.456;19.120;2023-07-29T00:51:06;99826.66;;;20.63;100.00
71567;BME280;59403;47.456;19.120;2023-07-29T00:53:33;99822.09;;;20.63;100.00
71567;BME280;59403;47.456;19.120;2023-07-29T00:56:00;99815.44;;;20.54;100.00
71567;BME280;59403;47.456;19.120;2023-07-29T00:58:27;99822.22;;;20.57;100.00
71567;BME280;59403;47.456;19.120;2023-07-29T01:00:55;99816.97;;;20.50;100.00
71567;BME280;59403;47.456;19.120;2023-07-29T01:03:23;99811.59;;;20.39;100.00
71567;BME280;59403;47.456;19.120;2023-07-29T01:06:01;99820.94;;;20.36;100.00
71567;BME280;59403;47.456;19.120;2023-07-29T01:08:38;99818.59;;;20.28;100.00
71567;BME280;59403;47.456;19.120;2023-07-29T01:11:17;99812.88;;;20.24;100.00
71567;BME280;59403;47.456;19.120;2023-07-29T01:13:50;99821.16;;;20.23;100.00
71567;BME280;59403;47.456;19.120;2023-07-29T01:16:23;99820.56;;;20.21;100.00
71567;BME280;59403;47.456;19.120;2023-07-29T01:18:54;99820.22;;;20.17;100.00
71567;BME280;59403;47.456;19.120;2023-07-29T01:21:22;99816.25;;;20.20;100.00
71567;BME280;59403;47.456;19.120;2023-07-29T01:23:53;99820.81;;;20.19;100.00
71567;BME280;59403;47.456;19.120;2023-07-29T01:26:24;99818.37;;;20.18;100.00
71567;BME280;59403;47.456;19.120;2023-07-29T01:28:51;99815.66;;;20.18;100.00
71567;BME280;59403;47.456;19.120;2023-07-29T01:31:29;99816.78;;;20.10;100.00
71567;BME280;59403;47.456;19.120;2023-07-29T01:34:01;99826.41;;;20.06;100.00
71567;BME280;59403;47.456;19.120;2023-07-29T01:36:32;99822.06;;;20.05;100.00
71567;BME280;59403;47.456;19.120;2023-07-29T01:39:02;99823.44;;;19.96;100.00
71567;BME280;59403;47.456;19.120;2023-07-29T01:41:30;99820.41;;;19.93;100.00
71567;BME280;59403;47.456;19.120;2023-07-29T01:43:57;99828.13;;;19.89;100.00
71567;BME280;59403;47.456;19.120;2023-07-29T01:46:25;99818.53;;;19.82;100.00
71567;BME280;59403;47.456;19.120;2023-07-29T01:48:52;99815.72;;;19.77;100.00
71567;BME280;59403;47.456;19.120;2023-07-29T01:51:19;99817.56;;;19.76;100.00
71567;BME280;59403;47.456;19.120;2023-07-29T01:53:47;99815.72;;;19.77;100.00
71567;BME280;59403;47.456;19.120;2023-07-29T01:56:15;99820.97;;;19.72;100.00
71567;BME280;59403;47.456;19.120;2023-07-29T01:58:42;99817.84;;;19.57;100.00
71567;BME280;59403;47.456;19.120;2023-07-29T02:01:09;99818.66;;;19.46;100.00
71567;BME280;59403;47.456;19.120;2023-07-29T02:03:36;99813.88;;;19.30;100.00
71567;BME280;59403;47.456;19.120;2023-07-29T02:06:03;99818.41;;;19.29;100.00
71567;BME280;59403;47.456;19.120;2023-07-29T02:08:30;99828.66;;;19.20;100.00
71567;BME280;59403;47.456;19.120;2023-07-29T02:10:56;99829.78;;;19.13;100.00
71567;BME280;59403;47.456;19.120;2023-07-29T02:13:25;99833.06;;;19.15;100.00
71567;BME280;59403;47.456;19.120;2023-07-29T02:15:52;99826.94;;;19.08;100.00
71567;BME280;59403;47.456;19.120;2023-07-29T02:18:18;99823.25;;;19.09;100.00
71567;BME280;59403;47.456;19.120;2023-07-29T02:20:46;99824.03;;;19.09;100.00
71567;BME280;59403;47.456;19.120;2023-07-29T02:23:14;99822.97;;;18.99;100.00
71567;BME280;59403;47.456;19.120;2023-07-29T02:25:42;99826.22;;;19.01;100.00
71567;BME280;59403;47.456;19.120;2023-07-29T02:28:09;99828.59;;;19.09;100.00
71567;BME280;59403;47.456;19.120;2023-07-29T02:30:41;99822.88;;;19.05;100.00
71567;BME280;59403;47.456;19.120;2023-07-29T02:33:10;99827.09;;;19.13;100.00
71567;BME280;59403;47.456;19.120;2023-07-29T02:35:37;99809.09;;;19.02;100.00
71567;BME280;59403;47.456;19.120;2023-07-29T02:38:03;99833.16;;;19.08;100.00
71567;BME280;59403;47.456;19.120;2023-07-29T02:40:30;99832.19;;;19.03;100.00
71567;BME280;59403;47.456;19.120;2023-07-29T02:42:57;99823.53;;;19.01;100.00
71567;BME280;59403;47.456;19.120;2023-07-29T02:45:24;99831.94;;;19.04;100.00
71567;BME280;59403;47.456;19.120;2023-07-29T02:47:52;99826.37;;;19.06;100.00
71567;BME280;59403;47.456;19.120;2023-07-29T02:50:19;99819.97;;;19.07;100.00
71567;BME280;59403;47.456;19.120;2023-07-29T02:52:46;99829.22;;;19.11;100.00
71567;BME280;59403;47.456;19.120;2023-07-29T02:55:13;99831.91;;;19.11;100.00
71567;BME280;59403;47.456;19.120;2023-07-29T02:57:41;99834.22;;;19.07;100.00
71567;BME280;59403;47.456;19.120;2023-07-29T03:00:08;99839.88;;;18.99;100.00
71567;BME280;59403;47.456;19.120;2023-07-29T03:02:36;99832.28;;;18.96;100.00
71567;BME280;59403;47.456;19.120;2023-07-29T03:05:05;99839.13;;;18.92;100.00
71567;BME280;59403;47.456;19.120;2023-07-29T03:07:32;99838.53;;;18.90;100.00
71567;BME280;59403;47.456;19.120;2023-07-29T03:09:59;99836.28;;;18.87;100.00
71567;BME280;59403;47.456;19.120;2023-07-29T03:12:26;99837.94;;;18.88;100.00
71567;BME280;59403;47.456;19.120;2023-07-29T03:14:53;99838.75;;;18.89;100.00
71567;BME280;59403;47.456;19.120;2023-07-29T03:17:21;99837.81;;;18.83;100.00
71567;BME280;59403;47.456;19.120;2023-07-29T03:19:48;99841.50;;;18.82;100.00
71567;BME280;59403;47.456;19.120;2023-07-29T03:22:17;99843.81;;;18.79;100.00
71567;BME280;59403;47.456;19.120;2023-07-29T03:24:43;99845.91;;;18.77;100.00
71567;BME280;59403;47.456;19.120;2023-07-29T03:27:10;99841.59;;;18.76;100.00
71567;BME280;59403;47.456;19.120;2023-07-29T03:29:37;99839.50;;;18.78;100.00
71567;BME280;59403;47.456;19.120;2023-07-29T03:32:04;99844.19;;;18.82;100.00
71567;BME280;59403;47.456;19.120;2023-07-29T03:34:31;99844.78;;;18.84;100.00
71567;BME280;59403;47.456;19.120;2023-07-29T03:36:59;99838.53;;;18.72;100.00
71567;BME280;59403;47.456;19.120;2023-07-29T03:39:27;99834.88;;;18.67;100.00
71567;BME280;59403;47.456;19.120;2023-07-29T03:41:53;99836.88;;;18.71;100.00
71567;BME280;59403;47.456;19.120;2023-07-29T03:44:20;99838.53;;;18.72;100.00
71567;BME280;59403;47.456;19.120;2023-07-29T03:46:48;99837.25;;;18.75;100.00
71567;BME280;59403;47.456;19.120;2023-07-29T03:49:15;99837.84;;;18.77;100.00
71567;BME280;59403;47.456;19.120;2023-07-29T03:51:42;99848.16;;;18.80;100.00
71567;BME280;59403;47.456;19.120;2023-07-29T03:54:10;99839.75;;;18.76;100.00
71567;BME280;59403;47.456;19.120;2023-07-29T03:56:38;99839.50;;;18.78;100.00
71567;BME280;59403;47.456;19.120;2023-07-29T03:59:05;99841.00;;;18.74;100.00
71567;BME280;59403;47.456;19.120;2023-07-29T04:01:32;99839.56;;;18.71;100.00
71567;BME280;59403;47.456;19.120;2023-07-29T04:03:59;99841.97;;;18.79;100.00
71567;BME280;59403;47.456;19.120;2023-07-29T04:06:26;99850.00;;;18.79;100.00
71567;BME280;59403;47.456;19.120;2023-07-29T04:08:53;99857.16;;;18.85;100.00
71567;BME280;59403;47.456;19.120;2023-07-29T04:11:20;99851.78;;;18.85;100.00
71567;BME280;59403;47.456;19.120;2023-07-29T04:13:48;99868.28;;;19.07;100.00
71567;BME280;59403;47.456;19.120;2023-07-29T04:16:15;99868.12;;;19.02;100.00
71567;BME280;59403;47.456;19.120;2023-07-29T04:18:43;99865.38;;;19.08;100.00
71567;BME280;59403;47.456;19.120;2023-07-29T04:21:10;99859.75;;;19.10;100.00
71567;BME280;59403;47.456;19.120;2023-07-29T04:23:37;99852.69;;;19.15;100.00
71567;BME280;59403;47.456;19.120;2023-07-29T04:26:05;99857.16;;;19.21;100.00
71567;BME280;59403;47.456;19.120;2023-07-29T04:28:32;99855.22;;;19.29;100.00
71567;BME280;59403;47.456;19.120;2023-07-29T04:31:01;99844.47;;;19.29;100.00
71567;BME280;59403;47.456;19.120;2023-07-29T04:33:29;99848.63;;;19.43;100.00
71567;BME280;59403;47.456;19.120;2023-07-29T04:35:56;99850.56;;;19.54;100.00
71567;BME280;59403;47.456;19.120;2023-07-29T04:38:32;99854.56;;;19.63;100.00
71567;BME280;59403;47.456;19.120;2023-07-29T04:40:59;99855.06;;;19.71;100.00
71567;BME280;59403;47.456;19.120;2023-07-29T04:43:27;99854.66;;;19.86;100.00
71567;BME280;59403;47.456;19.120;2023-07-29T04:45:54;99855.81;;;19.90;100.00
71567;BME280;59403;47.456;19.120;2023-07-29T04:48:23;99853.00;;;19.96;100.00
71567;BME280;59403;47.456;19.120;2023-07-29T04:50:49;99855.03;;;20.01;100.00
71567;BME280;59403;47.456;19.120;2023-07-29T04:53:16;99858.31;;;20.03;100.00
71567;BME280;59403;47.456;19.120;2023-07-29T04:55:43;99865.19;;;20.10;100.00
71567;BME280;59403;47.456;19.120;2023-07-29T04:58:10;99872.19;;;20.41;100.00
71567;BME280;59403;47.456;19.120;2023-07-29T05:00:37;99857.78;;;20.59;100.00
71567;BME280;59403;47.456;19.120;2023-07-29T05:03:04;99860.12;;;20.55;100.00
71567;BME280;59403;47.456;19.120;2023-07-29T05:05:33;99869.72;;;20.63;100.00
71567;BME280;59403;47.456;19.120;2023-07-29T05:08:00;99865.84;;;20.70;100.00
71567;BME280;59403;47.456;19.120;2023-07-29T05:10:27;99865.72;;;20.77;100.00
71567;BME280;59403;47.456;19.120;2023-07-29T05:12:53;99863.13;;;20.82;98.91
71567;BME280;59403;47.456;19.120;2023-07-29T05:15:20;99862.22;;;20.88;98.19
71567;BME280;59403;47.456;19.120;2023-07-29T05:17:47;99862.91;;;20.95;97.62
71567;BME280;59403;47.456;19.120;2023-07-29T05:20:14;99855.78;;;21.00;97.02
71567;BME280;59403;47.456;19.120;2023-07-29T05:22:42;99856.81;;;21.11;96.01
71567;BME280;59403;47.456;19.120;2023-07-29T05:25:09;99874.69;;;21.17;95.98
71567;BME280;59403;47.456;19.120;2023-07-29T05:27:36;99873.19;;;21.21;96.37
71567;BME280;59403;47.456;19.120;2023-07-29T05:30:06;99885.44;;;21.28;96.24
71567;BME280;59403;47.456;19.120;2023-07-29T05:32:33;99865.25;;;21.42;95.14
71567;BME280;59403;47.456;19.120;2023-07-29T05:35:00;99853.75;;;21.47;94.36
71567;BME280;59403;47.456;19.120;2023-07-29T05:37:28;99862.03;;;21.57;93.72
71567;BME280;59403;47.456;19.120;2023-07-29T05:39:56;99874.06;;;21.66;93.85
71567;BME280;59403;47.456;19.120;2023-07-29T05:42:23;99884.22;;;21.76;93.24
71567;BME280;59403;47.456;19.120;2023-07-29T05:44:50;99894.66;;;21.84;92.66
71567;BME280;59403;47.456;19.120;2023-07-29T05:47:16;99880.34;;;21.83;91.86
71567;BME280;59403;47.456;19.120;2023-07-29T05:49:43;99874.88;;;21.95;91.11
71567;BME280;59403;47.456;19.120;2023-07-29T05:52:10;99887.50;;;22.06;90.14
71567;BME280;59403;47.456;19.120;2023-07-29T05:54:37;99893.56;;;22.13;89.78
71567;BME280;59403;47.456;19.120;2023-07-29T05:57:06;99890.44;;;22.21;89.04
71567;BME280;59403;47.456;19.120;2023-07-29T05:59:33;99904.84;;;22.43;87.77
71567;BME280;59403;47.456;19.120;2023-07-29T06:02:00;99906.88;;;22.52;88.44
71567;BME280;59403;47.456;19.120;2023-07-29T06:04:26;99903.63;;;22.67;87.68
71567;BME280;59403;47.456;19.120;2023-07-29T06:06:53;99907.31;;;22.61;87.67
71567;BME280;59403;47.456;19.120;2023-07-29T06:09:21;99920.22;;;22.59;87.32
71567;BME280;59403;47.456;19.120;2023-07-29T06:11:48;99918.28;;;22.55;87.71
71567;BME280;59403;47.456;19.120;2023-07-29T06:14:16;99920.72;;;22.56;87.89
71567;BME280;59403;47.456;19.120;2023-07-29T06:16:43;99922.53;;;22.67;85.33
71567;BME280;59403;47.456;19.120;2023-07-29T06:19:10;99929.31;;;22.70;86.18
71567;BME280;59403;47.456;19.120;2023-07-29T06:21:38;99931.09;;;22.64;86.46
71567;BME280;59403;47.456;19.120;2023-07-29T06:24:05;99937.34;;;22.65;86.76
71567;BME280;59403;47.456;19.120;2023-07-29T06:26:32;99941.59;;;22.61;86.59
71567;BME280;59403;47.456;19.120;2023-07-29T06:28:59;99935.50;;;22.53;85.07
71567;BME280;59403;47.456;19.120;2023-07-29T06:31:27;99931.66;;;22.49;86.40
71567;BME280;59403;47.456;19.120;2023-07-29T06:33:55;99933.03;;;22.52;86.22
71567;BME280;59403;47.456;19.120;2023-07-29T06:36:22;99930.09;;;22.87;85.20
71567;BME280;59403;47.456;19.120;2023-07-29T06:38:48;99927.34;;;23.20;84.98
71567;BME280;59403;47.456;19.120;2023-07-29T06:41:15;99933.94;;;23.45;83.27
71567;BME280;59403;47.456;19.120;2023-07-29T06:43:42;99936.97;;;23.76;81.79
71567;BME280;59403;47.456;19.120;2023-07-29T06:46:09;99936.38;;;23.95;80.58
71567;BME280;59403;47.456;19.120;2023-07-29T06:48:37;99930.28;;;24.05;80.13
71567;BME280;59403;47.456;19.120;2023-07-29T06:51:04;99939.66;;;24.24;79.65
71567;BME280;59403;47.456;19.120;2023-07-29T06:53:31;99935.53;;;24.43;78.62
71567;BME280;59403;47.456;19.120;2023-07-29T06:55:58;99943.50;;;24.59;78.57
71567;BME280;59403;47.456;19.120;2023-07-29T06:58:25;99939.56;;;24.72;78.25
71567;BME280;59403;47.456;19.120;2023-07-29T07:00:52;99937.00;;;24.92;76.83
71567;BME280;59403;47.456;19.120;2023-07-29T07:03:19;99940.03;;;25.06;76.26
71567;BME280;59403;47.456;19.120;2023-07-29T07:05:47;99939.56;;;25.14;73.57
71567;BME280;59403;47.456;19.120;2023-07-29T07:08:14;99926.09;;;25.34;73.88
71567;BME280;59403;47.456;19.120;2023-07-29T07:10:41;99935.72;;;25.51;73.83
71567;BME280;59403;47.456;19.120;2023-07-29T07:13:08;99933.25;;;25.50;73.03
71567;BME280;59403;47.456;19.120;2023-07-29T07:15:35;99937.44;;;25.77;72.03
71567;BME280;59403;47.456;19.120;2023-07-29T07:18:02;99931.28;;;26.12;72.14
71567;BME280;59403;47.456;19.120;2023-07-29T07:20:29;99926.38;;;25.99;69.36
71567;BME280;59403;47.456;19.120;2023-07-29T07:22:57;99920.91;;;25.94;65.12
71567;BME280;59403;47.456;19.120;2023-07-29T07:25:24;99927.22;;;26.15;67.66
71567;BME280;59403;47.456;19.120;2023-07-29T07:27:50;99928.53;;;26.02;67.56
71567;BME280;59403;47.456;19.120;2023-07-29T07:30:17;99927.78;;;26.27;67.18
71567;BME280;59403;47.456;19.120;2023-07-29T07:32:44;99926.72;;;26.48;67.33
71567;BME280;59403;47.456;19.120;2023-07-29T07:35:11;99930.22;;;26.43;66.71
71567;BME280;59403;47.456;19.120;2023-07-29T07:37:38;99929.69;;;26.21;67.86
71567;BME280;59403;47.456;19.120;2023-07-29T07:40:07;99924.50;;;26.10;66.37
71567;BME280;59403;47.456;19.120;2023-07-29T07:42:34;99915.00;;;26.12;65.94
71567;BME280;59403;47.456;19.120;2023-07-29T07:45:01;99912.56;;;26.11;67.09
71567;BME280;59403;47.456;19.120;2023-07-29T07:47:28;99917.47;;;26.44;65.77
71567;BME280;59403;47.456;19.120;2023-07-29T07:49:55;99910.97;;;26.70;65.44
71567;BME280;59403;47.456;19.120;2023-07-29T07:52:22;99913.59;;;27.10;63.26
71567;BME280;59403;47.456;19.120;2023-07-29T07:54:51;99910.59;;;27.12;63.80
71567;BME280;59403;47.456;19.120;2023-07-29T07:57:21;99906.53;;;27.04;62.08
71567;BME280;59403;47.456;19.120;2023-07-29T07:59:48;99902.37;;;27.27;62.31
71567;BME280;59403;47.456;19.120;2023-07-29T08:02:16;99911.06;;;27.39;62.29
71567;BME280;59403;47.456;19.120;2023-07-29T08:04:43;99902.63;;;27.40;62.04
71567;BME280;59403;47.456;19.120;2023-07-29T08:07:09;99900.47;;;27.27;63.02
71567;BME280;59403;47.456;19.120;2023-07-29T08:09:37;99889.03;;;27.40;62.65
71567;BME280;59403;47.456;19.120;2023-07-29T08:12:04;99901.69;;;26.81;62.39
71567;BME280;59403;47.456;19.120;2023-07-29T08:14:33;99901.69;;;26.76;64.80
71567;BME280;59403;47.456;19.120;2023-07-29T08:17:00;99900.53;;;27.12;63.83
71567;BME280;59403;47.456;19.120;2023-07-29T08:19:27;99889.16;;;27.00;63.42
71567;BME280;59403;47.456;19.120;2023-07-29T08:21:54;99892.59;;;27.26;61.66
71567;BME280;59403;47.456;19.120;2023-07-29T08:24:21;99883.88;;;27.34;60.22
71567;BME280;59403;47.456;19.120;2023-07-29T08:26:48;99894.50;;;27.84;59.65
71567;BME280;59403;47.456;19.120;2023-07-29T08:29:14;99890.62;;;28.00;59.42
71567;BME280;59403;47.456;19.120;2023-07-29T08:31:43;99899.63;;;28.01;59.18
71567;BME280;59403;47.456;19.120;2023-07-29T08:34:10;99887.06;;;28.00;59.78
71567;BME280;59403;47.456;19.120;2023-07-29T08:36:37;99890.47;;;28.20;59.23
71567;BME280;59403;47.456;19.120;2023-07-29T08:39:04;99884.56;;;28.08;57.57
71567;BME280;59403;47.456;19.120;2023-07-29T08:41:37;99891.44;;;28.01;57.34
71567;BME280;59403;47.456;19.120;2023-07-29T08:44:09;99888.88;;;28.14;56.85
71567;BME280;59403;47.456;19.120;2023-07-29T08:46:39;99882.56;;;27.80;56.75
71567;BME280;59403;47.456;19.120;2023-07-29T08:49:07;99879.00;;;28.23;55.84
71567;BME280;59403;47.456;19.120;2023-07-29T08:51:35;99884.41;;;28.62;55.45
71567;BME280;59403;47.456;19.120;2023-07-29T08:54:03;99875.44;;;28.28;55.77
71567;BME280;59403;47.456;19.120;2023-07-29T08:56:30;99877.75;;;28.44;55.05
71567;BME280;59403;47.456;19.120;2023-07-29T08:58:58;99887.06;;;28.72;54.50
71567;BME280;59403;47.456;19.120;2023-07-29T09:01:27;99890.72;;;28.86;51.75
71567;BME280;59403;47.456;19.120;2023-07-29T09:03:56;99887.66;;;29.16;51.50
71567;BME280;59403;47.456;19.120;2023-07-29T09:06:25;99886.34;;;29.14;51.28
71567;BME280;59403;47.456;19.120;2023-07-29T09:08:53;99877.50;;;29.22;51.77
71567;BME280;59403;47.456;19.120;2023-07-29T09:11:21;99875.53;;;29.27;51.44
71567;BME280;59403;47.456;19.120;2023-07-29T09:13:49;99868.16;;;29.04;47.83
71567;BME280;59403;47.456;19.120;2023-07-29T09:16:16;99874.13;;;29.30;48.55
71567;BME280;59403;47.456;19.120;2023-07-29T09:18:43;99857.84;;;28.72;48.85
71567;BME280;59403;47.456;19.120;2023-07-29T09:21:09;99870.28;;;29.12;48.66
71567;BME280;59403;47.456;19.120;2023-07-29T09:23:41;99864.94;;;28.97;48.41
71567;BME280;59403;47.456;19.120;2023-07-29T09:26:09;99869.47;;;29.12;48.41
71567;BME280;59403;47.456;19.120;2023-07-29T09:28:37;99856.69;;;29.49;47.80
71567;BME280;59403;47.456;19.120;2023-07-29T09:31:05;99863.19;;;29.53;48.27
71567;BME280;59403;47.456;19.120;2023-07-29T09:33:34;99860.84;;;29.65;48.47
71567;BME280;59403;47.456;19.120;2023-07-29T09:36:04;99858.88;;;29.47;48.17
71567;BME280;59403;47.456;19.120;2023-07-29T09:38:35;99853.50;;;29.42;47.65
71567;BME280;59403;47.456;19.120;2023-07-29T09:41:03;99849.63;;;30.04;46.89
71567;BME280;59403;47.456;19.120;2023-07-29T09:43:31;99851.63;;;29.80;47.01
71567;BME280;59403;47.456;19.120;2023-07-29T09:45:59;99856.22;;;30.17;48.18
71567;BME280;59403;47.456;19.120;2023-07-29T09:48:27;99848.25;;;29.69;46.54
71567;BME280;59403;47.456;19.120;2023-07-29T09:50:54;99840.91;;;30.53;46.23
71567;BME280;59403;47.456;19.120;2023-07-29T09:53:21;99837.66;;;30.78;44.79
71567;BME280;59403;47.456;19.120;2023-07-29T09:55:48;99833.63;;;30.75;44.99
71567;BME280;59403;47.456;19.120;2023-07-29T09:58:19;99836.62;;;30.60;45.36
71567;BME280;59403;47.456;19.120;2023-07-29T10:00:47;99832.34;;;31.13;44.72
71567;BME280;59403;47.456;19.120;2023-07-29T10:03:14;99834.56;;;30.84;44.44
71567;BME280;59403;47.456;19.120;2023-07-29T10:05:41;99826.37;;;29.88;45.24
71567;BME280;59403;47.456;19.120;2023-07-29T10:08:10;99831.03;;;29.87;46.27
71567;BME280;59403;47.456;19.120;2023-07-29T10:10:38;99824.94;;;29.16;47.25
71567;BME280;59403;47.456;19.120;2023-07-29T10:13:05;99834.19;;;28.91;46.03
71567;BME280;59403;47.456;19.120;2023-07-29T10:15:33;99825.13;;;29.62;46.49
71567;BME280;59403;47.456;19.120;2023-07-29T10:18:01;99832.00;;;30.29;46.59
71567;BME280;59403;47.456;19.120;2023-07-29T10:20:30;99831.56;;;30.40;44.53
71567;BME280;59403;47.456;19.120;2023-07-29T10:22:59;99819.91;;;30.48;44.02
71567;BME280;59403;47.456;19.120;2023-07-29T10:25:33;99819.31;;;30.19;45.11
71567;BME280;59403;47.456;19.120;2023-07-29T10:28:05;99817.81;;;30.59;43.22
71567;BME280;59403;47.456;19.120;2023-07-29T10:30:34;99822.53;;;30.07;44.75
71567;BME280;59403;47.456;19.120;2023-07-29T10:33:03;99814.50;;;29.79;44.56
71567;BME280;59403;47.456;19.120;2023-07-29T10:35:30;99816.56;;;30.51;45.30
71567;BME280;59403;47.456;19.120;2023-07-29T10:37:59;99823.22;;;30.91;44.52
71567;BME280;59403;47.456;19.120;2023-07-29T10:40:26;99814.50;;;31.02;43.19
71567;BME280;59403;47.456;19.120;2023-07-29T10:43:10;99822.59;;;31.35;43.65
71567;BME280;59403;47.456;19.120;2023-07-29T10:45:40;99818.13;;;31.39;42.03
71567;BME280;59403;47.456;19.120;2023-07-29T10:48:10;99826.94;;;31.49;42.04
71567;BME280;59403;47.456;19.120;2023-07-29T10:50:37;99809.13;;;30.97;42.84
71567;BME280;59403;47.456;19.120;2023-07-29T10:53:05;99813.59;;;30.93;43.21
71567;BME280;59403;47.456;19.120;2023-07-29T10:55:33;99806.72;;;30.96;42.84
71567;BME280;59403;47.456;19.120;2023-07-29T10:58:07;99808.47;;;30.46;43.01
71567;BME280;59403;47.456;19.120;2023-07-29T11:00:34;99807.78;;;30.41;43.78
71567;BME280;59403;47.456;19.120;2023-07-29T11:03:05;99796.22;;;30.11;44.20
71567;BME280;59403;47.456;19.120;2023-07-29T11:05:43;99815.84;;;30.13;44.01
71567;BME280;59403;47.456;19.120;2023-07-29T11:08:23;99806.81;;;29.99;44.46
71567;BME280;59403;47.456;19.120;2023-07-29T11:11:03;99818.25;;;30.01;45.31
71567;BME280;59403;47.456;19.120;2023-07-29T11:13:31;99808.22;;;29.97;44.78
71567;BME280;59403;47.456;19.120;2023-07-29T11:15:58;99808.66;;;29.85;45.24
71567;BME280;59403;47.456;19.120;2023-07-29T11:18:29;99807.41;;;30.29;45.00
71567;BME280;59403;47.456;19.120;2023-07-29T11:20:59;99813.06;;;30.64;43.47
71567;BME280;59403;47.456;19.120;2023-07-29T11:23:30;99809.53;;;31.18;41.78
71567;BME280;59403;47.456;19.120;2023-07-29T11:25:58;99800.50;;;31.17;41.18
71567;BME280;59403;47.456;19.120;2023-07-29T11:28:26;99814.84;;;31.86;40.94
71567;BME280;59403;47.456;19.120;2023-07-29T11:30:54;99814.16;;;32.02;40.40
71567;BME280;59403;47.456;19.120;2023-07-29T11:33:23;99820.03;;;32.09;40.99
71567;BME280;59403;47.456;19.120;2023-07-29T11:35:51;99809.06;;;31.87;40.37
71567;BME280;59403;47.456;19.120;2023-07-29T11:38:20;99811.34;;;32.07;39.64
71567;BME280;59403;47.456;19.120;2023-07-29T11:40:58;99803.91;;;32.08;39.61
71567;BME280;59403;47.456;19.120;2023-07-29T11:43:25;99811.63;;;32.06;40.63
71567;BME280;59403;47.456;19.120;2023-07-29T11:45:53;99793.84;;;32.25;40.24
71567;BME280;59403;47.456;19.120;2023-07-29T11:48:27;99807.75;;;32.29;39.67
71567;BME280;59403;47.456;19.120;2023-07-29T11:50:55;99800.34;;;32.60;39.89
71567;BME280;59403;47.456;19.120;2023-07-29T11:53:26;99799.38;;;32.56;40.28
71567;BME280;59403;47.456;19.120;2023-07-29T11:55:54;99776.06;;;31.92;39.75
71567;BME280;59403;47.456;19.120;2023-07-29T11:58:21;99788.00;;;32.18;40.78
71567;BME280;59403;47.456;19.120;2023-07-29T12:00:48;99789.88;;;31.65;41.60
71567;BME280;59403;47.456;19.120;2023-07-29T12:03:16;99786.50;;;31.68;41.09
71567;BME280;59403;47.456;19.120;2023-07-29T12:05:44;99786.53;;;31.05;42.83
71567;BME280;59403;47.456;19.120;2023-07-29T12:08:13;99788.53;;;30.46;43.50
71567;BME280;59403;47.456;19.120;2023-07-29T12:10:40;99781.25;;;30.09;44.12
71567;BME280;59403;47.456;19.120;2023-07-29T12:13:08;99785.91;;;29.76;44.88
71567;BME280;59403;47.456;19.120;2023-07-29T12:15:37;99770.09;;;29.55;45.14
71567;BME280;59403;47.456;19.120;2023-07-29T12:18:05;99772.59;;;29.51;45.73
71567;BME280;59403;47.456;19.120;2023-07-29T12:20:32;99770.91;;;29.37;45.33
71567;BME280;59403;47.456;19.120;2023-07-29T12:23:00;99777.63;;;29.26;45.88
71567;BME280;59403;47.456;19.120;2023-07-29T12:25:29;99741.41;;;29.39;45.64
71567;BME280;59403;47.456;19.120;2023-07-29T12:27:57;99768.41;;;29.77;45.03
71567;BME280;59403;47.456;19.120;2023-07-29T12:30:28;99773.16;;;30.63;43.47
71567;BME280;59403;47.456;19.120;2023-07-29T12:32:55;99775.00;;;30.22;43.73
71567;BME280;59403;47.456;19.120;2023-07-29T12:35:22;99747.63;;;30.41;42.70
71567;BME280;59403;47.456;19.120;2023-07-29T12:37:58;99760.69;;;30.11;43.91
71567;BME280;59403;47.456;19.120;2023-07-29T12:40:26;99765.41;;;29.92;45.82
71567;BME280;59403;47.456;19.120;2023-07-29T12:42:54;99764.63;;;29.55;46.64
71567;BME280;59403;47.456;19.120;2023-07-29T12:45:21;99760.59;;;30.17;45.12
71567;BME280;59403;47.456;19.120;2023-07-29T12:47:52;99748.84;;;30.75;43.44
71567;BME280;59403;47.456;19.120;2023-07-29T12:50:19;99757.44;;;31.09;42.54